Time;durP1;ratioP1;P1;durP2;ratioP2;P2;SDS_P1;SDS_P2;PMS_P1;PMS_P2;Temp;Humidity;BMP_temperature;BMP_pressure;BME280_temperature;BME280_humidity;BME280_pressure;Samples;Min_cycle;Max_cycle;Signal;HPM_P1;HPM_P2
2022/07/07 00:02:14;;;;;;;7.05;4.07;;;16.90;99.90;;;;;;5001414;28;20038;-44
2022/07/07 00:04:39;;;;;;;10.10;5.00;;;16.90;99.90;;;;;;4999972;28;20108;-44
2022/07/07 00:07:05;;;;;;;8.02;4.47;;;16.90;99.90;;;;;;5000237;28;20470;-43
2022/07/07 00:09:31;;;;;;;8.75;4.78;;;16.90;99.90;;;;;;5003548;28;20034;-44
2022/07/07 00:11:58;;;;;;;8.05;4.97;;;16.90;99.90;;;;;;4997004;28;20040;-43
2022/07/07 00:14:24;;;;;;;8.60;5.07;;;16.90;99.90;;;;;;5002162;28;20060;-44
2022/07/07 00:16:49;;;;;;;12.90;5.10;;;16.90;99.90;;;;;;5000417;28;20046;-49
2022/07/07 00:19:15;;;;;;;7.93;4.13;;;16.90;99.90;;;;;;5002283;28;20395;-44
2022/07/07 00:21:41;;;;;;;7.10;3.88;;;16.90;99.90;;;;;;4994987;28;20092;-45
2022/07/07 00:24:07;;;;;;;6.95;3.40;;;16.90;99.90;;;;;;5003659;28;20034;-45
2022/07/07 00:26:33;;;;;;;6.07;3.53;;;16.90;99.90;;;;;;4997018;28;20583;-47
2022/07/07 00:28:59;;;;;;;5.20;3.35;;;16.90;99.90;;;;;;5004869;28;20044;-45
2022/07/07 00:31:25;;;;;;;6.55;3.60;;;16.80;99.90;;;;;;4998880;28;20046;-45
2022/07/07 00:33:51;;;;;;;7.15;3.92;;;16.90;99.90;;;;;;5004599;28;20069;-48
2022/07/07 00:36:16;;;;;;;9.90;5.28;;;16.90;99.90;;;;;;5002366;28;20482;-46
2022/07/07 00:38:42;;;;;;;9.90;5.45;;;16.90;99.90;;;;;;5000685;28;20063;-45
2022/07/07 00:41:08;;;;;;;7.85;4.80;;;16.90;99.90;;;;;;4995718;28;20142;-44
2022/07/07 00:43:39;;;;;;;7.82;4.18;;;16.90;99.90;;;;;;5000723;28;20076;-45
2022/07/07 00:46:05;;;;;;;7.07;3.72;;;16.90;99.90;;;;;;4998651;28;20403;-46
2022/07/07 00:48:35;;;;;;;6.25;3.47;;;16.90;99.90;;;;;;4999234;28;20048;-47
2022/07/07 00:51:03;;;;;;;8.98;3.22;;;17.00;99.90;;;;;;4996085;28;20034;-44
2022/07/07 00:53:28;;;;;;;7.13;3.30;;;17.00;99.90;;;;;;4998812;28;20095;-46
2022/07/07 00:55:54;;;;;;;5.65;1.98;;;17.00;99.90;;;;;;5001974;28;20025;-44
2022/07/07 00:58:20;;;;;;;3.83;1.30;;;17.00;99.90;;;;;;5000355;28;20160;-48
2022/07/07 01:00:46;;;;;;;4.72;1.25;;;17.00;99.90;;;;;;4999727;28;20038;-44
2022/07/07 01:03:12;;;;;;;8.82;1.70;;;17.00;99.90;;;;;;5004016;28;20046;-47
2022/07/07 01:05:40;;;;;;;3.55;0.95;;;17.00;99.90;;;;;;5000116;28;20042;-46
2022/07/07 01:08:08;;;;;;;6.10;1.00;;;17.10;99.90;;;;;;5001914;28;20049;-45
2022/07/07 01:10:34;;;;;;;6.97;1.52;;;17.10;99.90;;;;;;5003243;28;20057;-46
2022/07/07 01:13:04;;;;;;;3.45;1.02;;;17.10;99.90;;;;;;4999507;28;20544;-44
2022/07/07 01:15:30;;;;;;;2.13;0.80;;;17.10;99.90;;;;;;4995062;28;20033;-48
2022/07/07 01:17:56;;;;;;;3.47;1.05;;;17.10;99.90;;;;;;5001962;28;20091;-44
2022/07/07 01:20:22;;;;;;;3.35;1.15;;;17.10;99.90;;;;;;4999671;28;20041;-45
2022/07/07 01:22:52;;;;;;;5.70;1.10;;;17.10;99.90;;;;;;4999657;28;20117;-46
2022/07/07 01:25:18;;;;;;;3.05;0.85;;;17.00;99.90;;;;;;4999754;28;20344;-43
2022/07/07 01:27:44;;;;;;;4.90;1.33;;;16.90;99.90;;;;;;4999259;28;20038;-44
2022/07/07 01:30:11;;;;;;;2.90;1.27;;;16.80;99.90;;;;;;4994757;28;20096;-45
2022/07/07 01:32:37;;;;;;;2.50;1.00;;;16.60;99.90;;;;;;5000272;28;20487;-45
2022/07/07 01:35:04;;;;;;;4.57;1.27;;;16.50;99.90;;;;;;5002885;28;20033;-45
2022/07/07 01:37:29;;;;;;;3.67;1.48;;;16.50;99.90;;;;;;4998031;28;20049;-46
2022/07/07 01:39:55;;;;;;;4.40;1.13;;;16.50;99.90;;;;;;4998618;28;20042;-50
2022/07/07 01:42:21;;;;;;;5.00;1.88;;;16.40;99.90;;;;;;4995682;28;20054;-51
2022/07/07 01:44:51;;;;;;;3.28;1.48;;;16.30;99.90;;;;;;4997018;28;20049;-45
2022/07/07 01:47:18;;;;;;;4.82;1.70;;;16.30;99.90;;;;;;5000530;28;20073;-46
2022/07/07 01:49:43;;;;;;;4.93;1.70;;;16.30;99.90;;;;;;5000602;28;20030;-46
2022/07/07 01:52:09;;;;;;;4.05;1.90;;;16.30;99.90;;;;;;4992181;28;20455;-49
2022/07/07 01:54:36;;;;;;;3.88;1.60;;;16.20;99.90;;;;;;5001674;28;20038;-48
2022/07/07 01:57:02;;;;;;;4.60;1.80;;;16.20;99.90;;;;;;5000533;28;20046;-45
2022/07/07 01:59:28;;;;;;;4.18;2.00;;;16.30;99.90;;;;;;4996413;28;20121;-44
2022/07/07 02:01:54;;;;;;;5.90;1.70;;;16.20;99.90;;;;;;5001154;28;20121;-50
2022/07/07 02:04:20;;;;;;;5.13;1.60;;;16.20;99.90;;;;;;4998337;28;20176;-45
2022/07/07 02:06:45;;;;;;;7.53;1.63;;;16.20;99.90;;;;;;5000825;28;20142;-44
2022/07/07 02:09:11;;;;;;;5.28;1.70;;;16.20;99.90;;;;;;4995054;28;20030;-45
2022/07/07 02:11:37;;;;;;;3.70;1.70;;;16.20;99.90;;;;;;4997838;28;20053;-44
2022/07/07 02:14:04;;;;;;;2.63;1.38;;;16.20;99.90;;;;;;4999553;28;20034;-45
2022/07/07 02:16:30;;;;;;;4.82;1.70;;;16.20;99.90;;;;;;4998718;28;20100;-45
2022/07/07 02:18:58;;;;;;;3.20;1.48;;;16.20;99.90;;;;;;5000945;28;20495;-44
2022/07/07 02:21:24;;;;;;;5.18;1.60;;;16.10;99.90;;;;;;5002364;28;20042;-49
2022/07/07 02:23:51;;;;;;;5.18;2.13;;;16.10;99.90;;;;;;5002470;28;20092;-44
2022/07/07 02:26:17;;;;;;;4.38;1.63;;;16.20;99.90;;;;;;4999480;28;20514;-45
2022/07/07 02:28:44;;;;;;;4.30;1.80;;;16.20;99.90;;;;;;5005044;28;20073;-50
2022/07/07 02:31:10;;;;;;;2.95;1.30;;;16.10;99.90;;;;;;5006250;28;20554;-45
2022/07/07 02:33:36;;;;;;;3.85;1.70;;;16.10;99.90;;;;;;5003577;28;20411;-44
2022/07/07 02:36:03;;;;;;;6.70;1.70;;;16.10;99.90;;;;;;4998259;28;21175;-45
2022/07/07 02:38:30;;;;;;;8.90;1.80;;;16.10;99.90;;;;;;4999503;28;20041;-44
2022/07/07 02:40:55;;;;;;;3.80;1.98;;;16.10;99.90;;;;;;5005226;28;20061;-48
2022/07/07 02:43:22;;;;;;;4.00;1.80;;;16.10;99.90;;;;;;4999321;28;20071;-44
2022/07/07 02:45:49;;;;;;;8.80;1.95;;;16.10;99.90;;;;;;5002711;28;20490;-44
2022/07/07 02:48:18;;;;;;;7.72;1.90;;;16.10;99.90;;;;;;5004477;28;20052;-43
2022/07/07 02:50:44;;;;;;;6.20;1.90;;;16.10;99.90;;;;;;5002816;28;20042;-45
2022/07/07 02:53:11;;;;;;;4.35;1.85;;;16.10;99.90;;;;;;4999189;28;20403;-43
2022/07/07 02:55:37;;;;;;;4.97;1.70;;;16.10;99.90;;;;;;5002259;28;20107;-44
2022/07/07 02:58:04;;;;;;;6.13;1.83;;;16.10;99.90;;;;;;5005991;28;20041;-43
2022/07/07 03:00:33;;;;;;;4.68;1.65;;;16.10;99.90;;;;;;5004239;28;20137;-42
2022/07/07 03:03:03;;;;;;;5.80;2.05;;;16.10;99.90;;;;;;5003364;28;20054;-42
2022/07/07 03:05:29;;;;;;;5.00;2.00;;;16.20;99.90;;;;;;5000206;28;20526;-46
2022/07/07 03:07:55;;;;;;;6.85;2.15;;;16.10;99.90;;;;;;4999382;28;20562;-45
2022/07/07 03:10:21;;;;;;;7.85;2.13;;;16.10;99.90;;;;;;5000645;28;21470;-45
2022/07/07 03:12:47;;;;;;;5.05;1.80;;;16.10;99.90;;;;;;5000157;28;20404;-43
2022/07/07 03:15:16;;;;;;;7.38;1.95;;;16.20;99.90;;;;;;5003775;28;20475;-41
2022/07/07 03:17:46;;;;;;;5.35;1.50;;;16.20;99.90;;;;;;5000135;28;20038;-42
2022/07/07 03:20:13;;;;;;;8.50;1.77;;;16.20;99.90;;;;;;4995982;28;20049;-42
2022/07/07 03:22:40;;;;;;;10.75;2.03;;;16.30;99.90;;;;;;5004889;28;20486;-42
2022/07/07 03:25:07;;;;;;;7.65;1.55;;;16.30;99.90;;;;;;5003405;28;20211;-47
2022/07/07 03:27:33;;;;;;;9.18;1.42;;;16.30;99.90;;;;;;5006203;28;20560;-43
2022/07/07 03:29:59;;;;;;;11.18;1.88;;;16.20;99.90;;;;;;5004045;28;20495;-43
2022/07/07 03:32:25;;;;;;;5.50;1.42;;;16.20;99.90;;;;;;5002135;28;20084;-42
2022/07/07 03:34:51;;;;;;;2.63;0.80;;;16.20;99.90;;;;;;5007147;28;20034;-42
2022/07/07 03:37:16;;;;;;;6.65;0.90;;;16.10;99.90;;;;;;4997250;28;20073;-47
2022/07/07 03:39:42;;;;;;;3.78;0.93;;;16.10;99.90;;;;;;5002345;28;20050;-45
2022/07/07 03:42:08;;;;;;;5.78;1.20;;;16.10;99.90;;;;;;5001639;28;20095;-47
2022/07/07 03:44:34;;;;;;;7.05;1.10;;;16.10;99.90;;;;;;4999973;28;20100;-43
2022/07/07 03:46:59;;;;;;;4.63;1.17;;;16.00;99.90;;;;;;5002015;28;20480;-43
2022/07/07 03:49:25;;;;;;;5.10;1.13;;;16.10;99.90;;;;;;5004654;28;20140;-43
2022/07/07 03:51:51;;;;;;;4.03;0.88;;;16.10;99.90;;;;;;5001880;28;20066;-44
2022/07/07 03:54:16;;;;;;;5.70;0.80;;;16.00;99.90;;;;;;4999135;28;20447;-47
2022/07/07 03:56:42;;;;;;;6.68;1.10;;;16.00;99.90;;;;;;5001258;28;20520;-42
2022/07/07 03:59:08;;;;;;;2.55;0.70;;;16.00;99.90;;;;;;5000721;28;20045;-43
2022/07/07 04:01:34;;;;;;;5.65;1.20;;;16.00;99.90;;;;;;5004744;28;20056;-42
2022/07/07 04:03:59;;;;;;;4.78;0.68;;;16.00;99.90;;;;;;5002407;28;20053;-42
2022/07/07 04:06:25;;;;;;;4.50;1.42;;;16.00;99.90;;;;;;4999834;28;20112;-42
2022/07/07 04:08:51;;;;;;;10.23;0.90;;;15.90;99.90;;;;;;5001783;28;20046;-44
2022/07/07 04:11:17;;;;;;;7.75;1.23;;;15.90;99.90;;;;;;5001327;28;20082;-43
2022/07/07 04:13:42;;;;;;;6.13;0.88;;;16.00;99.90;;;;;;4996491;28;20116;-44
2022/07/07 04:16:08;;;;;;;6.72;0.93;;;15.90;99.90;;;;;;5000473;28;20121;-44
2022/07/07 04:18:34;;;;;;;6.97;0.50;;;15.90;99.90;;;;;;5005378;28;20129;-43
2022/07/07 04:21:00;;;;;;;4.10;0.30;;;15.80;99.90;;;;;;4999711;28;20030;-43
2022/07/07 04:23:26;;;;;;;5.03;0.55;;;15.80;99.90;;;;;;4995772;28;20045;-42
2022/07/07 04:25:52;;;;;;;3.55;0.60;;;15.70;99.90;;;;;;5003416;28;20566;-42
2022/07/07 04:28:18;;;;;;;2.38;0.35;;;15.60;99.90;;;;;;4997786;28;20111;-43
2022/07/07 04:30:44;;;;;;;3.05;0.75;;;15.60;99.90;;;;;;4999430;28;20046;-42
2022/07/07 04:33:10;;;;;;;3.05;0.47;;;15.50;99.90;;;;;;5004401;28;20503;-43
2022/07/07 04:35:35;;;;;;;1.45;0.30;;;15.50;99.90;;;;;;5000658;28;20038;-44
2022/07/07 04:38:01;;;;;;;5.18;0.47;;;15.50;99.90;;;;;;5000077;28;20041;-42
2022/07/07 04:40:27;;;;;;;4.22;0.65;;;15.50;99.90;;;;;;5000137;28;20037;-42
2022/07/07 04:42:52;;;;;;;2.72;0.32;;;15.50;99.90;;;;;;4996857;28;20130;-41
2022/07/07 04:45:18;;;;;;;4.88;0.60;;;15.50;99.90;;;;;;5001863;28;20041;-45
2022/07/07 04:47:44;;;;;;;4.97;0.77;;;15.60;99.90;;;;;;5002188;28;20042;-44
2022/07/07 04:50:11;;;;;;;6.00;0.70;;;15.60;99.90;;;;;;4997793;28;20473;-43
2022/07/07 04:52:38;;;;;;;8.27;0.70;;;15.60;99.90;;;;;;4995954;28;20073;-41
2022/07/07 04:55:05;;;;;;;7.72;1.08;;;15.60;99.90;;;;;;5000089;28;20038;-41
2022/07/07 04:57:31;;;;;;;5.07;0.75;;;15.60;99.90;;;;;;5007665;28;20081;-43
2022/07/07 04:59:57;;;;;;;6.03;0.55;;;15.60;99.90;;;;;;5005680;28;20069;-42
2022/07/07 05:02:22;;;;;;;7.13;0.68;;;15.60;99.90;;;;;;4998134;28;20046;-47
2022/07/07 05:04:49;;;;;;;4.97;0.55;;;15.60;99.90;;;;;;5004394;28;20545;-43
2022/07/07 05:07:15;;;;;;;4.15;0.65;;;15.60;99.90;;;;;;5000897;28;20455;-46
2022/07/07 05:09:41;;;;;;;6.57;0.95;;;15.60;99.90;;;;;;5001822;28;20076;-43
2022/07/07 05:12:08;;;;;;;4.38;0.60;;;15.60;99.90;;;;;;5005539;28;20069;-50
2022/07/07 05:14:33;;;;;;;8.15;1.00;;;15.60;99.90;;;;;;4999995;28;20053;-42
2022/07/07 05:16:59;;;;;;;10.07;1.65;;;15.60;99.90;;;;;;5001590;28;20038;-41
2022/07/07 05:19:26;;;;;;;5.85;0.90;;;15.60;99.90;;;;;;4999707;28;20415;-42
2022/07/07 05:21:52;;;;;;;7.53;0.80;;;15.60;99.90;;;;;;5002064;28;20050;-42
2022/07/07 05:24:17;;;;;;;6.72;0.77;;;15.60;99.90;;;;;;5004536;28;20046;-45
2022/07/07 05:26:43;;;;;;;7.15;1.10;;;15.60;99.90;;;;;;5016099;28;20048;-45
2022/07/07 05:29:09;;;;;;;6.57;0.85;;;15.70;99.90;;;;;;4999337;28;20488;-42
2022/07/07 05:31:35;;;;;;;5.93;0.77;;;15.70;99.90;;;;;;4997494;28;20038;-42
2022/07/07 05:34:00;;;;;;;4.93;0.70;;;15.70;99.90;;;;;;4999631;28;20109;-43
2022/07/07 05:36:26;;;;;;;5.97;0.70;;;15.70;99.90;;;;;;4995884;28;20044;-44
2022/07/07 05:38:52;;;;;;;5.15;0.93;;;15.80;99.90;;;;;;4994426;28;20049;-43
2022/07/07 05:41:17;;;;;;;5.85;0.80;;;15.70;99.90;;;;;;4996366;28;20432;-44
2022/07/07 05:43:44;;;;;;;4.00;0.60;;;15.70;99.90;;;;;;4997350;28;20684;-43
2022/07/07 05:46:10;;;;;;;7.35;0.93;;;15.70;99.90;;;;;;4996607;28;20218;-44
2022/07/07 05:48:36;;;;;;;4.45;0.55;;;15.70;99.90;;;;;;4995799;28;20633;-45
2022/07/07 05:51:02;;;;;;;5.88;0.77;;;15.80;99.90;;;;;;4995149;28;20550;-43
2022/07/07 05:53:27;;;;;;;3.47;0.80;;;15.80;99.90;;;;;;4992705;28;20037;-42
2022/07/07 05:55:53;;;;;;;4.32;0.70;;;15.80;99.90;;;;;;4994970;28;20144;-42
2022/07/07 05:58:19;;;;;;;4.00;0.60;;;15.80;99.90;;;;;;4999495;28;20567;-45
2022/07/07 06:00:44;;;;;;;5.13;0.70;;;15.90;99.90;;;;;;4997819;28;20124;-43
2022/07/07 06:03:10;;;;;;;5.32;0.70;;;15.90;99.90;;;;;;5000810;28;20526;-42
2022/07/07 06:05:36;;;;;;;6.18;0.80;;;16.10;99.90;;;;;;5000003;28;20120;-46
2022/07/07 06:08:02;;;;;;;4.35;0.70;;;16.20;99.90;;;;;;5004993;28;20543;-43
2022/07/07 06:10:28;;;;;;;6.57;0.70;;;16.30;99.90;;;;;;5002717;28;20034;-43
2022/07/07 06:12:54;;;;;;;3.22;0.70;;;16.40;99.90;;;;;;4997688;28;20100;-44
2022/07/07 06:15:23;;;;;;;6.07;0.93;;;16.50;99.90;;;;;;4998755;28;20364;-45
2022/07/07 06:17:49;;;;;;;7.47;1.35;;;16.70;99.90;;;;;;5001530;28;20046;-43
2022/07/07 06:20:14;;;;;;;6.57;0.70;;;16.80;99.90;;;;;;5009065;28;20072;-41
2022/07/07 06:22:40;;;;;;;5.25;0.65;;;16.90;99.90;;;;;;5005860;28;20120;-42
2022/07/07 06:25:09;;;;;;;7.13;0.82;;;17.00;99.90;;;;;;5006967;28;20073;-43
2022/07/07 06:27:36;;;;;;;6.50;0.82;;;17.00;99.90;;;;;;5006897;28;20120;-46
2022/07/07 06:30:06;;;;;;;11.88;1.13;;;16.90;99.90;;;;;;5006871;28;20132;-42
2022/07/07 06:32:32;;;;;;;1.20;0.40;;;16.90;99.90;;;;;;5005173;28;20116;-43
2022/07/07 06:34:58;;;;;;;6.32;0.55;;;16.80;99.90;;;;;;5008687;28;20030;-41
2022/07/07 06:37:23;;;;;;;3.72;0.50;;;16.80;99.90;;;;;;5011035;28;20572;-42
2022/07/07 06:39:49;;;;;;;6.60;0.70;;;16.80;99.90;;;;;;5011852;28;20042;-42
2022/07/07 06:42:16;;;;;;;4.65;0.63;;;16.80;99.90;;;;;;5008660;28;20050;-42
2022/07/07 06:44:41;;;;;;;2.40;0.60;;;16.70;99.90;;;;;;5006913;28;20060;-41
2022/07/07 06:47:07;;;;;;;3.92;0.50;;;16.70;99.90;;;;;;5006739;28;20487;-47
2022/07/07 06:49:33;;;;;;;3.72;0.50;;;16.70;99.90;;;;;;5000395;28;20080;-43
2022/07/07 06:51:59;;;;;;;3.95;0.85;;;16.60;99.90;;;;;;5010518;28;20033;-45
2022/07/07 06:54:24;;;;;;;5.13;0.60;;;16.60;99.90;;;;;;4998600;28;20716;-41
2022/07/07 06:56:50;;;;;;;5.85;0.73;;;16.70;99.90;;;;;;5002307;28;20042;-43
2022/07/07 06:59:17;;;;;;;3.90;0.32;;;16.70;99.90;;;;;;5003842;28;20104;-41
2022/07/07 07:01:42;;;;;;;1.85;0.20;;;16.70;99.90;;;;;;5005710;28;20041;-43
2022/07/07 07:04:09;;;;;;;1.80;0.20;;;16.60;99.90;;;;;;5009114;28;20064;-44
2022/07/07 07:06:36;;;;;;;2.20;0.17;;;16.60;99.90;;;;;;5004023;28;20049;-44
2022/07/07 07:09:02;;;;;;;3.17;0.47;;;16.60;99.90;;;;;;4998000;28;20041;-43
2022/07/07 07:11:28;;;;;;;2.17;0.10;;;16.80;99.90;;;;;;5003357;28;20029;-47
2022/07/07 07:13:56;;;;;;;1.75;0.38;;;17.00;99.90;;;;;;5004127;28;20049;-44
2022/07/07 07:16:22;;;;;;;4.40;0.50;;;17.00;99.90;;;;;;4998193;28;20041;-43
2022/07/07 07:18:48;;;;;;;2.83;0.30;;;17.10;99.90;;;;;;5008816;28;20088;-42
2022/07/07 07:21:13;;;;;;;2.72;0.40;;;17.10;99.90;;;;;;5001688;28;20085;-48
2022/07/07 07:23:40;;;;;;;3.45;0.40;;;17.30;99.90;;;;;;5002037;28;20046;-43
2022/07/07 07:26:06;;;;;;;3.90;0.77;;;17.40;99.90;;;;;;5002703;28;20037;-43
2022/07/07 07:28:33;;;;;;;4.10;0.40;;;17.50;99.90;;;;;;5022463;28;20455;-42
2022/07/07 07:30:59;;;;;;;2.40;0.20;;;17.60;99.90;;;;;;5007729;28;20056;-44
2022/07/07 07:33:25;;;;;;;4.43;0.45;;;17.70;99.90;;;;;;5008663;28;20086;-43
2022/07/07 07:35:50;;;;;;;4.18;0.50;;;17.80;99.90;;;;;;5005042;28;20077;-44
2022/07/07 07:38:16;;;;;;;2.10;0.40;;;18.00;99.90;;;;;;5005490;28;20137;-46
2022/07/07 07:40:42;;;;;;;1.85;0.30;;;18.10;99.90;;;;;;4998144;28;20495;-42
2022/07/07 07:43:08;;;;;;;7.18;0.57;;;18.10;99.90;;;;;;5006803;28;20049;-47
2022/07/07 07:45:34;;;;;;;4.75;0.40;;;18.00;99.90;;;;;;5005910;28;20076;-43
2022/07/07 07:48:02;;;;;;;2.35;0.40;;;17.80;99.90;;;;;;5010300;28;20495;-45
2022/07/07 07:50:29;;;;;;;3.83;0.30;;;17.70;99.90;;;;;;5004482;28;20109;-42
2022/07/07 07:52:54;;;;;;;2.55;0.30;;;17.40;99.90;;;;;;5002658;28;20049;-42
2022/07/07 07:55:21;;;;;;;3.60;0.40;;;17.20;99.90;;;;;;5002240;28;20048;-45
2022/07/07 07:57:48;;;;;;;3.03;0.30;;;17.00;99.90;;;;;;5002403;28;20041;-46
2022/07/07 08:00:17;;;;;;;2.95;0.60;;;16.80;99.90;;;;;;5002491;28;20522;-44
2022/07/07 08:02:43;;;;;;;3.25;0.40;;;16.90;99.90;;;;;;5005038;28;20053;-44
2022/07/07 08:05:10;;;;;;;3.28;0.47;;;16.90;99.90;;;;;;5007445;28;20057;-43
2022/07/07 08:07:36;;;;;;;2.35;0.43;;;17.00;99.90;;;;;;5004403;28;20474;-44
2022/07/07 08:10:02;;;;;;;2.38;0.40;;;17.10;99.90;;;;;;5007467;28;20030;-44
2022/07/07 08:12:28;;;;;;;3.35;0.40;;;17.30;99.90;;;;;;5008002;28;20137;-43
2022/07/07 08:14:54;;;;;;;2.50;0.40;;;17.40;99.90;;;;;;5007688;28;20057;-44
2022/07/07 08:17:19;;;;;;;8.23;0.85;;;17.60;99.90;;;;;;5020701;28;20038;-44
2022/07/07 08:19:45;;;;;;;4.65;0.60;;;17.60;99.90;;;;;;5007699;28;20403;-43
2022/07/07 08:22:12;;;;;;;3.88;0.90;;;17.80;99.90;;;;;;4997874;28;20053;-43
2022/07/07 08:24:38;;;;;;;4.70;0.77;;;17.90;99.90;;;;;;5001937;28;20041;-43
2022/07/07 08:27:04;;;;;;;2.25;0.45;;;17.90;99.90;;;;;;5003905;28;20417;-42
2022/07/07 08:29:31;;;;;;;3.25;0.73;;;17.80;99.90;;;;;;5009094;28;20137;-47
2022/07/07 08:31:57;;;;;;;5.30;0.50;;;17.60;99.90;;;;;;5004571;28;20132;-46
2022/07/07 08:34:23;;;;;;;2.25;0.30;;;17.30;99.90;;;;;;5005802;28;20037;-42
2022/07/07 08:36:49;;;;;;;5.05;0.60;;;17.10;99.90;;;;;;5006877;28;20045;-43
2022/07/07 08:39:14;;;;;;;1.20;0.20;;;17.10;99.90;;;;;;5006180;28;20065;-43
2022/07/07 08:41:41;;;;;;;2.20;0.30;;;17.00;99.90;;;;;;5008160;28;20084;-44
2022/07/07 08:44:07;;;;;;;3.10;0.30;;;17.10;99.90;;;;;;5004534;28;20040;-43
2022/07/07 08:46:32;;;;;;;2.80;0.47;;;17.10;99.90;;;;;;5006918;28;20072;-46
2022/07/07 08:48:58;;;;;;;5.75;0.57;;;17.30;99.90;;;;;;5008314;28;20450;-47
2022/07/07 08:51:25;;;;;;;3.38;0.40;;;17.40;99.90;;;;;;5004727;28;20100;-43
2022/07/07 08:53:52;;;;;;;3.63;0.47;;;17.50;99.90;;;;;;5006250;28;20048;-42
2022/07/07 08:56:18;;;;;;;4.10;0.47;;;17.50;99.90;;;;;;5002628;28;20056;-44
2022/07/07 08:58:45;;;;;;;5.38;1.17;;;17.80;99.90;;;;;;4996960;28;20459;-42
2022/07/07 09:01:12;;;;;;;1.02;0.20;;;18.00;99.90;;;;;;5007017;28;20041;-43
2022/07/07 09:03:38;;;;;;;2.05;0.40;;;18.20;99.90;;;;;;5003461;28;20073;-43
2022/07/07 09:06:04;;;;;;;5.32;0.88;;;18.30;99.90;;;;;;5006340;28;20041;-46
2022/07/07 09:08:31;;;;;;;6.20;0.57;;;18.20;99.90;;;;;;5004941;28;20049;-42
2022/07/07 09:10:57;;;;;;;5.25;0.77;;;18.00;99.90;;;;;;5006491;28;20212;-43
2022/07/07 09:13:31;;;;;;;5.20;0.73;;;17.90;99.90;;;;;;5005199;28;20500;-45
2022/07/07 09:16:02;;;;;;;2.85;0.40;;;17.80;99.90;;;;;;5005047;28;20045;-44
2022/07/07 09:18:36;;;;;;;3.70;0.40;;;17.80;99.90;;;;;;5004854;28;20037;-43
2022/07/07 09:21:05;;;;;;;5.32;0.85;;;17.80;99.90;;;;;;5003075;28;20030;-43
2022/07/07 09:23:31;;;;;;;5.30;0.73;;;18.00;99.90;;;;;;5007965;28;20383;-44
2022/07/07 09:25:58;;;;;;;8.20;1.02;;;18.10;99.90;;;;;;5003494;28;20505;-44
2022/07/07 09:28:26;;;;;;;5.30;0.43;;;18.10;99.90;;;;;;5002257;28;20359;-43
2022/07/07 09:30:52;;;;;;;3.95;0.47;;;18.10;99.90;;;;;;4998935;28;20376;-42
2022/07/07 09:33:23;;;;;;;3.65;0.50;;;18.00;99.90;;;;;;5017368;28;20459;-43
2022/07/07 09:38:37;;;;;;;4.28;0.88;;;18.00;99.90;;;;;;5006467;28;20045;-44
2022/07/07 09:41:12;;;;;;;3.17;0.75;;;18.20;99.90;;;;;;5005313;28;20590;-44
2022/07/07 09:43:44;;;;;;;5.55;1.02;;;18.30;99.90;;;;;;5001963;28;20098;-43
2022/07/07 09:46:22;;;;;;;3.42;0.50;;;18.40;99.90;;;;;;5003582;28;20167;-44
2022/07/07 09:48:50;;;;;;;3.40;0.50;;;18.40;99.90;;;;;;5007535;28;20038;-43
2022/07/07 09:51:24;;;;;;;5.03;0.50;;;18.30;99.90;;;;;;4999075;28;20048;-46
2022/07/07 09:53:52;;;;;;;2.42;0.60;;;18.40;99.90;;;;;;5004201;28;20445;-47
2022/07/07 09:56:21;;;;;;;2.95;0.68;;;18.50;99.90;;;;;;5003826;28;20045;-44
2022/07/07 09:58:46;;;;;;;2.58;0.40;;;18.60;99.90;;;;;;5003750;28;20080;-44
2022/07/07 10:01:12;;;;;;;3.30;0.60;;;18.70;99.90;;;;;;5001361;28;20121;-44
2022/07/07 10:03:41;;;;;;;4.65;0.50;;;18.90;99.90;;;;;;5008237;28;20058;-45
2022/07/07 10:06:07;;;;;;;2.90;0.60;;;19.00;99.90;;;;;;5000559;28;20044;-44
2022/07/07 10:08:34;;;;;;;3.17;0.60;;;19.00;99.90;;;;;;5003663;28;20035;-43
2022/07/07 10:11:02;;;;;;;4.97;0.90;;;18.90;99.90;;;;;;5004317;28;20033;-49
2022/07/07 10:13:32;;;;;;;2.00;0.60;;;18.70;99.90;;;;;;5005255;28;20413;-42
2022/07/07 10:15:58;;;;;;;1.90;0.45;;;18.60;99.90;;;;;;5003510;28;20442;-43
2022/07/07 10:18:24;;;;;;;1.48;0.30;;;18.80;99.90;;;;;;5005064;28;20068;-43
2022/07/07 10:20:50;;;;;;;3.67;0.63;;;18.90;99.90;;;;;;5006267;28;20073;-43
2022/07/07 10:23:16;;;;;;;3.75;0.68;;;18.80;99.90;;;;;;5004543;28;20077;-43
2022/07/07 10:25:58;;;;;;;2.75;0.30;;;18.50;99.90;;;;;;5004640;28;20131;-42
2022/07/07 10:28:56;;;;;;;1.17;0.30;;;18.30;99.90;;;;;;5005221;28;20499;-43
2022/07/07 10:31:27;;;;;;;1.55;0.30;;;18.00;99.90;;;;;;4999471;28;20054;-44
2022/07/07 10:34:01;;;;;;;1.90;0.32;;;17.80;99.90;;;;;;5005241;28;20034;-44
2022/07/07 10:36:47;;;;;;;4.53;0.80;;;17.90;99.90;;;;;;5003975;28;20089;-48
2022/07/07 10:39:13;;;;;;;1.85;0.30;;;18.00;99.90;;;;;;5005350;28;20046;-46
2022/07/07 10:41:41;;;;;;;3.50;0.68;;;18.20;99.90;;;;;;5003344;28;20065;-45
2022/07/07 10:44:09;;;;;;;2.10;0.30;;;18.50;99.90;;;;;;5002287;28;20048;-42
2022/07/07 10:46:36;;;;;;;1.75;0.40;;;19.00;99.90;;;;;;5005648;28;20491;-43
2022/07/07 10:49:12;;;;;;;4.63;0.40;;;19.40;99.90;;;;;;5005115;28;20034;-44
2022/07/07 10:51:53;;;;;;;2.22;0.32;;;19.30;99.90;;;;;;5000006;28;20069;-44
2022/07/07 10:54:34;;;;;;;0.47;0.20;;;18.80;99.90;;;;;;5007003;28;20072;-42
2022/07/07 10:57:00;;;;;;;0.77;0.10;;;18.30;99.90;;;;;;5001386;28;20038;-42
2022/07/07 10:59:26;;;;;;;1.50;0.20;;;18.00;99.90;;;;;;5001881;28;20120;-47
2022/07/07 11:02:01;;;;;;;2.65;0.43;;;17.90;99.90;;;;;;5003460;28;20049;-43
2022/07/07 11:04:47;;;;;;;2.13;0.45;;;17.90;99.90;;;;;;5007509;28;20530;-44
2022/07/07 11:07:21;;;;;;;5.35;0.60;;;18.00;99.90;;;;;;5007900;28;20124;-45
2022/07/07 11:10:02;;;;;;;2.85;0.70;;;18.00;99.90;;;;;;5006607;28;20817;-44
2022/07/07 11:12:39;;;;;;;6.53;0.85;;;17.90;99.90;;;;;;5006881;28;20129;-43
2022/07/07 11:15:20;;;;;;;7.82;1.35;;;17.70;99.90;;;;;;5004033;28;20469;-42
2022/07/07 11:17:55;;;;;;;6.25;1.33;;;17.50;99.90;;;;;;5006237;28;20038;-47
2022/07/07 11:20:23;;;;;;;8.88;1.67;;;17.60;99.90;;;;;;5003640;28;20046;-43
2022/07/07 11:22:54;;;;;;;6.72;0.90;;;17.80;99.90;;;;;;5003865;28;20125;-42
2022/07/07 11:25:22;;;;;;;7.00;1.30;;;17.90;99.90;;;;;;5005784;28;20399;-42
2022/07/07 11:27:49;;;;;;;4.95;0.88;;;18.10;99.90;;;;;;5006841;28;20475;-43
2022/07/07 11:30:16;;;;;;;9.07;0.90;;;18.40;99.90;;;;;;4999698;28;20041;-43
2022/07/07 11:32:43;;;;;;;7.47;1.40;;;18.50;99.90;;;;;;4999794;28;20480;-42
2022/07/07 11:35:11;;;;;;;9.00;1.00;;;18.60;99.90;;;;;;5005200;28;20042;-43
2022/07/07 11:37:40;;;;;;;9.65;1.60;;;18.70;99.90;;;;;;5003262;28;20432;-43
2022/07/07 11:40:23;;;;;;;11.07;1.17;;;18.70;99.90;;;;;;5005029;28;20072;-43
2022/07/07 11:42:49;;;;;;;9.00;1.10;;;18.60;99.90;;;;;;4994145;28;22339;-43
2022/07/07 11:45:27;;;;;;;11.82;1.23;;;18.40;99.90;;;;;;4988397;28;20125;-47
2022/07/07 11:47:56;;;;;;;9.82;1.25;;;18.30;99.90;;;;;;4984945;28;20038;-42
2022/07/07 11:50:23;;;;;;;8.57;1.20;;;18.20;99.90;;;;;;4988300;28;20038;-42
2022/07/07 11:52:57;;;;;;;12.90;1.90;;;18.20;99.90;;;;;;4976815;28;20057;-43
2022/07/07 11:55:24;;;;;;;8.15;1.10;;;18.30;99.90;;;;;;4975684;28;20038;-44
2022/07/07 11:57:52;;;;;;;11.77;1.50;;;18.40;98.30;;;;;;4973370;28;20425;-42
2022/07/07 12:00:21;;;;;;;8.45;1.05;;;18.50;97.00;;;;;;4975969;28;20491;-44
2022/07/07 12:02:48;;;;;;;5.72;0.73;;;18.70;95.70;;;;;;4979009;28;20066;-42
2022/07/07 12:05:22;;;;;;;8.68;1.10;;;19.00;95.00;;;;;;4980574;28;20046;-43
2022/07/07 12:08:03;;;;;;;11.98;1.45;;;19.20;92.80;;;;;;4984283;28;20050;-44
2022/07/07 12:10:35;;;;;;;4.80;0.93;;;19.30;91.70;;;;;;5004456;28;20058;-42
2022/07/07 12:13:01;;;;;;;6.75;1.10;;;19.40;91.40;;;;;;4982334;28;20551;-41
2022/07/07 12:15:29;;;;;;;11.70;1.52;;;19.60;92.00;;;;;;4983229;28;20044;-43
2022/07/07 12:17:57;;;;;;;6.15;1.35;;;19.60;90.60;;;;;;4985492;28;20656;-44
2022/07/07 12:20:23;;;;;;;8.20;1.20;;;19.60;89.40;;;;;;4984694;28;20042;-46
2022/07/07 12:22:57;;;;;;;5.15;1.02;;;19.60;90.40;;;;;;4984679;28;20038;-42
2022/07/07 12:25:27;;;;;;;7.47;1.20;;;19.80;90.30;;;;;;4986681;28;20131;-44
2022/07/07 12:28:00;;;;;;;10.75;1.15;;;20.00;88.90;;;;;;4986475;28;20502;-43
2022/07/07 12:30:33;;;;;;;7.72;0.90;;;20.00;86.70;;;;;;4987288;28;20177;-43
2022/07/07 12:32:59;;;;;;;9.60;1.10;;;19.90;86.70;;;;;;4986857;28;20459;-46
2022/07/07 12:35:38;;;;;;;4.75;0.88;;;19.70;86.30;;;;;;4987325;28;20425;-43
2022/07/07 12:38:05;;;;;;;7.78;1.55;;;19.50;86.10;;;;;;4987303;28;20464;-42
2022/07/07 12:40:33;;;;;;;9.50;1.13;;;19.40;86.70;;;;;;4988117;28;20074;-43
2022/07/07 12:43:11;;;;;;;7.35;0.82;;;19.30;86.00;;;;;;4983038;28;20050;-43
2022/07/07 12:45:45;;;;;;;11.27;1.88;;;19.20;85.80;;;;;;4987629;28;20129;-43
2022/07/07 12:48:18;;;;;;;4.30;0.80;;;19.00;87.90;;;;;;4979414;28;20482;-43
2022/07/07 12:50:44;;;;;;;6.95;1.05;;;19.10;87.30;;;;;;4986282;28;20034;-44